createdAt,value
2023-04-22T00:01:49.205Z,7.75
2023-04-22T00:04:16.821Z,7.25
2023-04-22T00:06:45.774Z,7.60
2023-04-22T00:09:13.163Z,8.10
2023-04-22T00:11:41.100Z,8.18
2023-04-22T00:14:08.183Z,8.15
2023-04-22T00:16:35.464Z,7.85
2023-04-22T00:19:02.605Z,8.60
2023-04-22T00:21:29.752Z,8.63
2023-04-22T00:23:56.901Z,8.35
2023-04-22T00:26:24.478Z,8.35
2023-04-22T00:28:51.670Z,8.27
2023-04-22T00:31:18.870Z,8.20
2023-04-22T00:33:46.128Z,7.82
2023-04-22T00:36:13.262Z,8.15
2023-04-22T00:38:41.392Z,8.45
2023-04-22T00:41:08.884Z,8.05
2023-04-22T00:43:36.003Z,8.52
2023-04-22T00:46:03.701Z,8.40
2023-04-22T00:48:31.131Z,8.57
2023-04-22T00:50:58.230Z,9.00
2023-04-22T00:53:25.389Z,9.27
2023-04-22T00:55:52.558Z,9.00
2023-04-22T00:58:21.401Z,8.32
2023-04-22T01:00:48.641Z,8.25
2023-04-22T01:03:16.471Z,8.80
2023-04-22T01:05:45.289Z,9.25
2023-04-22T01:08:12.977Z,8.70
2023-04-22T01:10:42.036Z,9.27
2023-04-22T01:13:09.964Z,9.05
2023-04-22T01:15:37.878Z,8.75
2023-04-22T01:18:05.650Z,9.52
2023-04-22T01:20:33.264Z,8.73
2023-04-22T01:23:04.592Z,9.10
2023-04-22T01:25:31.854Z,9.32
2023-04-22T01:27:59.111Z,9.55
2023-04-22T01:30:26.900Z,9.10
2023-04-22T01:32:54.189Z,9.38
2023-04-22T01:35:21.367Z,9.23
2023-04-22T01:37:48.559Z,9.50
2023-04-22T01:40:20.154Z,9.02
2023-04-22T01:42:47.306Z,9.07
2023-04-22T01:45:15.487Z,8.90
2023-04-22T01:47:42.582Z,9.43
2023-04-22T01:50:10.409Z,9.77
2023-04-22T01:52:37.482Z,9.73
2023-04-22T01:55:05.005Z,9.90
2023-04-22T01:57:32.156Z,9.43
2023-04-22T01:59:59.330Z,9.27
2023-04-22T02:02:26.850Z,9.00
2023-04-22T02:04:54.062Z,9.15
2023-04-22T02:07:21.162Z,9.20
2023-04-22T02:09:50.283Z,10.15
2023-04-22T02:12:17.929Z,9.18
2023-04-22T02:14:45.569Z,9.38
2023-04-22T02:17:12.635Z,9.23
2023-04-22T02:19:39.998Z,9.55
2023-04-22T02:22:07.227Z,9.30
2023-04-22T02:24:34.435Z,9.35
2023-04-22T02:27:01.735Z,9.68
2023-04-22T02:29:29.054Z,9.35
2023-04-22T02:31:56.303Z,8.85
2023-04-22T02:34:23.469Z,9.65
2023-04-22T02:36:50.784Z,9.77
2023-04-22T02:39:17.888Z,10.05
2023-04-22T02:41:45.069Z,9.65
2023-04-22T02:44:12.191Z,9.52
2023-04-22T02:46:39.454Z,10.32
2023-04-22T02:49:06.661Z,10.45
2023-04-22T02:51:33.820Z,9.63
2023-04-22T02:54:00.897Z,9.80
2023-04-22T02:56:28.043Z,9.48
2023-04-22T02:58:55.160Z,9.30
2023-04-22T03:01:22.359Z,9.50
2023-04-22T03:03:50.688Z,9.65
2023-04-22T03:06:18.644Z,8.57
2023-04-22T03:08:45.853Z,9.32
2023-04-22T03:11:14.232Z,8.95
2023-04-22T03:13:41.360Z,9.85
2023-04-22T03:16:08.514Z,8.23
2023-04-22T03:18:35.936Z,8.88
2023-04-22T03:21:03.082Z,8.93
2023-04-22T03:23:30.328Z,8.77
2023-04-22T03:25:57.462Z,8.77
2023-04-22T03:28:24.604Z,8.90
2023-04-22T03:30:52.338Z,9.40
2023-04-22T03:33:19.658Z,9.07
2023-04-22T03:35:50.084Z,9.95
2023-04-22T03:38:17.228Z,9.63
2023-04-22T03:40:44.322Z,9.27
2023-04-22T03:43:11.503Z,9.82
2023-04-22T03:45:38.752Z,9.63
2023-04-22T03:48:06.227Z,10.52
2023-04-22T03:50:34.217Z,8.80
2023-04-22T03:53:01.376Z,9.88
2023-04-22T03:55:28.494Z,9.85
2023-04-22T03:57:55.631Z,9.15
2023-04-22T04:00:22.877Z,10.00
2023-04-22T04:02:50.099Z,11.40
2023-04-22T04:05:17.829Z,12.00
2023-04-22T04:07:45.118Z,10.90
2023-04-22T04:10:12.295Z,10.50
2023-04-22T04:12:39.374Z,10.20
2023-04-22T04:15:07.267Z,10.55
2023-04-22T04:17:34.539Z,11.57
2023-04-22T04:20:01.882Z,10.93
2023-04-22T04:22:29.468Z,11.32
2023-04-22T04:24:56.566Z,11.02
2023-04-22T04:27:24.528Z,11.13
2023-04-22T04:29:52.997Z,10.80
2023-04-22T04:32:20.094Z,9.75
2023-04-22T04:34:47.419Z,9.85
2023-04-22T04:37:14.648Z,10.15
2023-04-22T04:39:42.568Z,9.63
2023-04-22T04:42:10.217Z,8.45
2023-04-22T04:44:37.873Z,9.32
2023-04-22T04:47:05.928Z,9.15
2023-04-22T04:49:33.092Z,8.98
2023-04-22T04:52:00.214Z,9.38
2023-04-22T04:54:27.433Z,8.85
2023-04-22T04:56:54.557Z,8.65
2023-04-22T04:59:21.653Z,8.55
2023-04-22T05:01:48.848Z,8.18
2023-04-22T05:04:16.382Z,8.18
2023-04-22T05:06:43.791Z,9.25
2023-04-22T05:09:11.009Z,8.00
2023-04-22T05:11:38.220Z,7.63
2023-04-22T05:14:06.043Z,6.70
2023-04-22T05:16:33.440Z,6.10
2023-04-22T05:19:00.554Z,5.22
2023-04-22T05:21:27.824Z,4.63
2023-04-22T05:23:54.908Z,4.53
2023-04-22T05:26:22.077Z,3.92
2023-04-22T05:28:49.181Z,3.55
2023-04-22T05:31:16.337Z,3.80
2023-04-22T05:33:43.508Z,3.90
2023-04-22T05:36:10.889Z,3.28
2023-04-22T05:38:37.976Z,3.40
2023-04-22T05:41:05.164Z,3.20
2023-04-22T05:43:32.242Z,3.28
2023-04-22T05:45:59.503Z,3.70
2023-04-22T05:48:26.661Z,3.90
2023-04-22T05:50:54.750Z,3.78
2023-04-22T05:53:21.867Z,3.28
2023-04-22T05:55:48.978Z,3.20
2023-04-22T05:58:16.061Z,3.28
2023-04-22T06:00:43.192Z,3.70
2023-04-22T06:03:10.582Z,3.58
2023-04-22T06:05:37.898Z,3.13
2023-04-22T06:08:05.122Z,3.58
2023-04-22T06:10:32.222Z,3.10
2023-04-22T06:12:59.512Z,3.20
2023-04-22T06:15:26.887Z,3.55
2023-04-22T06:17:54.223Z,3.85
2023-04-22T06:20:21.568Z,3.20
2023-04-22T06:22:48.769Z,3.40
2023-04-22T06:25:15.900Z,3.50
2023-04-22T06:27:43.094Z,3.40
2023-04-22T06:30:11.752Z,3.17
2023-04-22T06:32:38.990Z,3.50
2023-04-22T06:35:06.937Z,3.65
2023-04-22T06:37:34.155Z,3.50
2023-04-22T06:40:01.477Z,3.67
2023-04-22T06:42:28.559Z,3.97
2023-04-22T06:44:55.707Z,3.63
2023-04-22T06:47:23.465Z,4.13
2023-04-22T06:49:53.403Z,4.25
2023-04-22T06:52:23.968Z,4.25
2023-04-22T06:54:51.354Z,4.45
2023-04-22T06:57:18.520Z,4.28
2023-04-22T06:59:46.961Z,3.67
2023-04-22T07:02:14.639Z,4.22
2023-04-22T07:04:41.955Z,4.38
2023-04-22T07:07:09.262Z,4.03
2023-04-22T07:09:36.537Z,4.45
2023-04-22T07:12:03.769Z,3.85
2023-04-22T07:14:32.001Z,4.25
2023-04-22T07:16:59.441Z,3.90
2023-04-22T07:19:27.004Z,4.18
2023-04-22T07:21:54.584Z,3.33
2023-04-22T07:24:21.751Z,3.63
2023-04-22T07:26:48.855Z,4.15
2023-04-22T07:29:16.071Z,3.83
2023-04-22T07:31:43.238Z,4.13
2023-04-22T07:34:11.251Z,4.18
2023-04-22T07:36:38.636Z,3.75
2023-04-22T07:39:05.931Z,3.83
2023-04-22T07:41:33.045Z,3.90
2023-04-22T07:44:00.677Z,3.75
2023-04-22T07:46:27.967Z,3.70
2023-04-22T07:48:55.124Z,3.75
2023-04-22T07:51:22.261Z,4.00
2023-04-22T07:53:49.388Z,4.13
2023-04-22T07:56:16.497Z,3.67
2023-04-22T07:58:43.615Z,4.18
2023-04-22T08:01:10.923Z,4.20
2023-04-22T08:03:38.218Z,3.38
2023-04-22T08:06:05.733Z,4.07
2023-04-22T08:08:32.932Z,3.50
2023-04-22T08:11:00.025Z,3.53
2023-04-22T08:13:27.364Z,3.55
2023-04-22T08:15:54.475Z,3.50
2023-04-22T08:18:21.717Z,3.78
2023-04-22T08:20:50.608Z,3.58
2023-04-22T08:23:17.863Z,3.53
2023-04-22T08:25:45.028Z,3.60
2023-04-22T08:28:12.150Z,3.80
2023-04-22T08:30:39.436Z,3.42
2023-04-22T08:33:06.878Z,4.55
2023-04-22T08:35:37.783Z,3.80
2023-04-22T08:38:04.956Z,3.97
2023-04-22T08:40:32.129Z,3.35
2023-04-22T08:42:59.297Z,3.83
2023-04-22T08:45:26.535Z,3.67
2023-04-22T08:47:55.410Z,3.85
2023-04-22T08:50:22.754Z,3.75
2023-04-22T08:52:49.991Z,3.60
2023-04-22T08:55:17.287Z,3.83
2023-04-22T08:57:45.943Z,3.60
2023-04-22T09:00:13.566Z,4.18
2023-04-22T09:02:47.405Z,4.07
2023-04-22T09:05:15.305Z,3.85
2023-04-22T09:07:42.624Z,4.32
2023-04-22T09:10:12.044Z,3.53
2023-04-22T09:12:41.437Z,3.78
2023-04-22T09:15:10.083Z,4.10
2023-04-22T09:17:38.734Z,3.80
2023-04-22T09:20:09.097Z,4.28
2023-04-22T09:22:54.379Z,3.55
2023-04-22T09:25:23.888Z,3.65
2023-04-22T09:27:55.640Z,3.85
2023-04-22T09:30:31.659Z,3.50
2023-04-22T09:33:00.746Z,3.55
2023-04-22T09:35:31.253Z,3.85
2023-04-22T09:38:00.464Z,4.00
2023-04-22T09:40:28.710Z,3.53
2023-04-22T09:42:58.914Z,4.10
2023-04-22T09:45:41.740Z,4.03
2023-04-22T09:48:19.706Z,3.45
2023-04-22T09:50:49.196Z,3.70
2023-04-22T09:53:18.873Z,4.00
2023-04-22T09:55:52.099Z,4.13
2023-04-22T09:58:21.193Z,4.40
2023-04-22T10:00:57.132Z,4.28
2023-04-22T10:03:24.583Z,4.45
2023-04-22T10:05:52.530Z,3.90
2023-04-22T10:08:19.708Z,4.32
2023-04-22T10:10:47.284Z,4.40
2023-04-22T10:13:14.563Z,4.15
2023-04-22T10:15:48.905Z,4.18
2023-04-22T10:18:22.996Z,4.72
2023-04-22T10:20:51.766Z,4.15
2023-04-22T10:23:22.778Z,3.75
2023-04-22T10:25:53.826Z,4.45
2023-04-22T10:28:23.325Z,3.88
2023-04-22T10:30:51.315Z,3.80
2023-04-22T10:33:21.826Z,3.90
2023-04-22T10:36:11.781Z,4.20
2023-04-22T10:38:59.934Z,3.50
2023-04-22T10:41:31.074Z,4.43
2023-04-22T10:44:05.902Z,3.58
2023-04-22T10:46:40.363Z,3.78
2023-04-22T10:49:09.298Z,4.10
2023-04-22T10:51:45.224Z,4.15
2023-04-22T10:54:32.616Z,4.20
2023-04-22T10:57:14.556Z,3.70
2023-04-22T10:59:42.893Z,3.97
2023-04-22T11:02:12.158Z,3.97
2023-04-22T11:04:40.001Z,3.80
2023-04-22T11:07:29.897Z,3.42
2023-04-22T11:10:16.203Z,3.72
2023-04-22T11:12:45.302Z,3.22
2023-04-22T11:15:18.453Z,3.28
2023-04-22T11:17:53.686Z,3.45
2023-04-22T11:20:21.762Z,2.92
2023-04-22T11:22:54.620Z,3.42
2023-04-22T11:25:23.595Z,3.28
2023-04-22T11:27:50.928Z,3.28
2023-04-22T11:30:20.383Z,3.67
2023-04-22T11:32:53.285Z,3.72
2023-04-22T11:35:22.906Z,2.92
2023-04-22T11:37:52.861Z,3.35
2023-04-22T11:40:30.557Z,3.42
2023-04-22T11:43:01.421Z,3.30
2023-04-22T11:45:30.399Z,3.53
2023-04-22T11:47:58.262Z,3.20
2023-04-22T11:50:34.202Z,4.63
2023-04-22T11:53:21.494Z,2.92
2023-04-22T11:55:51.557Z,2.83
2023-04-22T11:58:29.402Z,3.40
2023-04-22T12:00:59.262Z,3.30
2023-04-22T12:03:29.134Z,2.50
2023-04-22T12:05:59.542Z,3.05
2023-04-22T12:08:42.725Z,3.28
2023-04-22T12:11:11.504Z,2.53
2023-04-22T12:13:38.648Z,2.40
2023-04-22T12:16:12.637Z,2.53
2023-04-22T12:18:50.082Z,2.42
2023-04-22T12:21:28.699Z,2.55
2023-04-22T12:24:05.130Z,2.63
2023-04-22T12:26:32.378Z,2.70
2023-04-22T12:29:00.916Z,2.90
2023-04-22T12:31:28.421Z,3.45
2023-04-22T12:33:56.585Z,2.58
2023-04-22T12:36:23.951Z,2.60
2023-04-22T12:38:51.613Z,2.63
2023-04-22T12:41:18.854Z,2.70
2023-04-22T12:43:46.727Z,3.10
2023-04-22T12:46:13.929Z,2.50
2023-04-22T12:48:42.959Z,2.58
2023-04-22T12:51:10.148Z,2.30
2023-04-22T12:53:37.307Z,2.50
2023-04-22T12:56:04.513Z,2.45
2023-04-22T12:58:31.703Z,2.40
2023-04-22T13:00:58.822Z,2.28
2023-04-22T13:03:26.322Z,2.53
2023-04-22T13:05:53.915Z,2.28
2023-04-22T13:08:21.434Z,2.30
2023-04-22T13:10:49.423Z,2.13
2023-04-22T13:13:18.833Z,2.15
2023-04-22T13:15:53.882Z,2.47
2023-04-22T13:18:24.882Z,2.20
2023-04-22T13:20:52.003Z,2.42
2023-04-22T13:23:21.925Z,2.20
2023-04-22T13:25:50.576Z,1.95
2023-04-22T13:28:17.822Z,2.33
2023-04-22T13:30:45.264Z,2.40
2023-04-22T13:33:12.448Z,2.63
2023-04-22T13:35:39.800Z,2.17
2023-04-22T13:38:07.352Z,1.95
2023-04-22T13:40:34.722Z,2.05
2023-04-22T13:43:02.006Z,2.85
2023-04-22T13:45:29.228Z,1.83
2023-04-22T13:47:56.499Z,1.85
2023-04-22T13:50:24.260Z,1.75
2023-04-22T13:52:51.479Z,8.48
2023-04-22T13:55:18.662Z,1.70
2023-04-22T13:57:45.858Z,2.22
2023-04-22T14:00:13.961Z,1.80
2023-04-22T14:02:41.360Z,1.88
2023-04-22T14:05:10.040Z,1.80
2023-04-22T14:07:38.002Z,1.98
2023-04-22T14:10:08.133Z,2.10
2023-04-22T14:12:35.300Z,2.40
2023-04-22T14:15:02.491Z,2.95
2023-04-22T14:17:29.735Z,2.10
2023-04-22T14:19:57.023Z,2.15
2023-04-22T14:22:24.180Z,2.03
2023-04-22T14:24:51.250Z,1.60
2023-04-22T14:27:18.389Z,2.13
2023-04-22T14:29:46.534Z,2.25
2023-04-22T14:32:13.704Z,1.52
2023-04-22T14:34:40.848Z,1.90
2023-04-22T14:37:08.067Z,1.65
2023-04-22T14:39:35.140Z,1.75
2023-04-22T14:42:02.909Z,1.73
2023-04-22T14:44:30.026Z,2.00
2023-04-22T14:46:57.294Z,2.10
2023-04-22T14:49:24.471Z,1.70
2023-04-22T14:51:52.224Z,1.80
2023-04-22T14:54:19.311Z,1.80
2023-04-22T14:56:46.590Z,1.70
2023-04-22T14:59:13.706Z,1.58
2023-04-22T15:01:43.262Z,1.60
2023-04-22T15:04:13.816Z,1.88
2023-04-22T15:06:41.501Z,1.67
2023-04-22T15:09:08.764Z,1.42
2023-04-22T15:11:35.951Z,1.77
2023-04-22T15:14:03.342Z,1.70
2023-04-22T15:16:30.690Z,2.38
2023-04-22T15:18:58.134Z,1.88
2023-04-22T15:21:25.354Z,1.85
2023-04-22T15:23:52.488Z,1.83
2023-04-22T15:26:19.696Z,1.73
2023-04-22T15:28:46.963Z,1.70
2023-04-22T15:31:14.068Z,1.70
2023-04-22T15:33:41.798Z,1.85
2023-04-22T15:36:09.923Z,1.60
2023-04-22T15:38:38.821Z,1.55
2023-04-22T15:41:06.134Z,1.63
2023-04-22T15:43:34.184Z,1.90
2023-04-22T15:46:01.671Z,2.03
2023-04-22T15:48:28.780Z,1.52
2023-04-22T15:50:55.994Z,1.70
2023-04-22T15:53:23.214Z,1.52
2023-04-22T15:55:51.749Z,1.60
2023-04-22T15:58:19.031Z,1.50
2023-04-22T16:00:46.285Z,2.10
2023-04-22T16:03:13.557Z,1.98
2023-04-22T16:05:40.898Z,1.60
2023-04-22T16:08:08.065Z,1.60
2023-04-22T16:10:35.254Z,1.50
2023-04-22T16:13:02.404Z,1.50
2023-04-22T16:15:29.566Z,1.70
2023-04-22T16:17:57.138Z,2.10
2023-04-22T16:20:24.699Z,2.20
2023-04-22T16:22:51.835Z,1.95
2023-04-22T16:25:20.253Z,1.85
2023-04-22T16:27:47.472Z,2.30
2023-04-22T16:30:16.107Z,2.10
2023-04-22T16:32:43.510Z,2.10
2023-04-22T16:35:11.704Z,1.77
2023-04-22T16:37:38.949Z,2.30
2023-04-22T16:40:07.096Z,2.10
2023-04-22T16:42:34.370Z,2.20
2023-04-22T16:45:02.200Z,2.20
2023-04-22T16:47:29.511Z,2.80
2023-04-22T16:49:56.639Z,2.10
2023-04-22T16:52:23.814Z,2.42
2023-04-22T16:54:51.848Z,2.22
2023-04-22T16:57:18.966Z,2.05
2023-04-22T16:59:46.152Z,2.10
2023-04-22T17:02:13.456Z,2.20
2023-04-22T17:04:40.683Z,2.22
2023-04-22T17:07:07.874Z,2.30
2023-04-22T17:09:35.012Z,2.22
2023-04-22T17:12:02.142Z,2.55
2023-04-22T17:14:29.415Z,2.40
2023-04-22T17:16:56.572Z,2.40
2023-04-22T17:19:24.814Z,2.78
2023-04-22T17:21:51.923Z,2.85
2023-04-22T17:24:21.164Z,2.78
2023-04-22T17:26:49.409Z,2.70
2023-04-22T17:29:16.564Z,2.53
2023-04-22T17:31:43.746Z,2.55
2023-04-22T17:34:11.052Z,2.58
2023-04-22T17:36:38.149Z,2.65
2023-04-22T17:39:05.430Z,2.63
2023-04-22T17:41:32.495Z,2.38
2023-04-22T17:43:59.646Z,2.33
2023-04-22T17:46:26.771Z,2.55
2023-04-22T17:48:53.963Z,2.42
2023-04-22T17:51:21.099Z,2.92
2023-04-22T17:53:48.207Z,2.25
2023-04-22T17:56:15.837Z,2.13
2023-04-22T17:58:42.990Z,2.50
2023-04-22T18:01:10.141Z,2.60
2023-04-22T18:03:37.548Z,2.80
2023-04-22T18:06:05.155Z,2.50
2023-04-22T18:08:32.308Z,2.63
2023-04-22T18:10:59.661Z,4.30
2023-04-22T18:13:27.022Z,3.20
2023-04-22T18:15:54.206Z,2.70
2023-04-22T18:18:21.456Z,2.75
2023-04-22T18:20:49.958Z,2.70
2023-04-22T18:23:17.226Z,3.28
2023-04-22T18:25:44.473Z,3.35
2023-04-22T18:28:11.568Z,3.30
2023-04-22T18:30:38.660Z,3.05
2023-04-22T18:33:05.976Z,3.40
2023-04-22T18:35:35.624Z,3.17
2023-04-22T18:38:03.308Z,3.40
2023-04-22T18:40:30.452Z,3.22
2023-04-22T18:42:58.269Z,4.28
2023-04-22T18:45:25.453Z,4.32
2023-04-22T18:47:53.088Z,3.60
2023-04-22T18:50:21.759Z,3.40
2023-04-22T18:52:48.963Z,3.65
2023-04-22T18:55:16.237Z,3.55
2023-04-22T18:57:43.828Z,3.65
2023-04-22T19:00:13.312Z,3.92
2023-04-22T19:02:42.263Z,4.38
2023-04-22T19:05:10.315Z,5.15
2023-04-22T19:07:38.587Z,4.43
2023-04-22T19:10:07.162Z,3.92
2023-04-22T19:12:34.950Z,3.85
2023-04-22T19:15:02.491Z,3.78
2023-04-22T19:17:29.997Z,3.78
2023-04-22T19:19:57.556Z,3.92
2023-04-22T19:22:24.852Z,4.72
2023-04-22T19:24:52.407Z,4.45
2023-04-22T19:27:19.951Z,5.28
2023-04-22T19:29:51.747Z,7.18
2023-04-22T19:32:19.791Z,6.50
2023-04-22T19:34:48.357Z,5.50
2023-04-22T19:37:16.832Z,5.53
2023-04-22T19:39:44.309Z,5.22
2023-04-22T19:42:12.418Z,5.85
2023-04-22T19:44:43.160Z,5.13
2023-04-22T19:47:11.109Z,5.50
2023-04-22T19:49:41.547Z,6.25
2023-04-22T19:52:15.403Z,6.15
2023-04-22T19:54:47.761Z,5.67
2023-04-22T19:57:15.922Z,4.32
2023-04-22T19:59:43.989Z,4.70
2023-04-22T20:02:12.717Z,4.70
2023-04-22T20:04:40.263Z,4.10
2023-04-22T20:07:07.754Z,3.80
2023-04-22T20:09:36.664Z,4.70
2023-04-22T20:12:05.613Z,4.63
2023-04-22T20:14:33.910Z,4.57
2023-04-22T20:17:01.310Z,4.93
2023-04-22T20:19:30.632Z,4.40
2023-04-22T20:22:00.290Z,4.45
2023-04-22T20:24:29.215Z,4.80
2023-04-22T20:26:56.555Z,5.00
2023-04-22T20:29:24.628Z,5.15
2023-04-22T20:31:52.135Z,5.53
2023-04-22T20:34:19.662Z,5.00
2023-04-22T20:36:46.969Z,4.88
2023-04-22T20:39:14.774Z,4.30
2023-04-22T20:41:42.401Z,4.03
2023-04-22T20:44:09.647Z,4.13
2023-04-22T20:46:37.719Z,4.35
2023-04-22T20:49:04.961Z,4.97
2023-04-22T20:51:32.255Z,4.72
2023-04-22T20:53:59.390Z,4.53
2023-04-22T20:56:27.830Z,7.00
2023-04-22T20:58:54.990Z,7.07
2023-04-22T21:01:22.241Z,5.72
2023-04-22T21:03:54.828Z,6.32
2023-04-22T21:06:22.501Z,6.25
2023-04-22T21:08:50.189Z,6.00
2023-04-22T21:11:18.700Z,5.88
2023-04-22T21:13:46.596Z,5.80
2023-04-22T21:16:16.523Z,6.50
2023-04-22T21:18:45.115Z,6.40
2023-04-22T21:21:14.431Z,6.13
2023-04-22T21:23:42.710Z,6.35
2023-04-22T21:26:10.769Z,6.72
2023-04-22T21:28:39.368Z,6.28
2023-04-22T21:31:07.071Z,7.30
2023-04-22T21:33:34.307Z,7.35
2023-04-22T21:36:01.551Z,7.63
2023-04-22T21:38:29.380Z,6.90
2023-04-22T21:40:56.586Z,6.60
2023-04-22T21:43:23.660Z,6.28
2023-04-22T21:45:50.916Z,6.10
2023-04-22T21:48:17.977Z,6.10
2023-04-22T21:50:45.101Z,6.20
2023-04-22T21:53:13.737Z,6.13
2023-04-22T21:55:41.211Z,6.32
2023-04-22T21:58:08.663Z,6.85
2023-04-22T22:00:36.273Z,6.57
2023-04-22T22:03:03.729Z,6.10
2023-04-22T22:05:31.983Z,6.28
2023-04-22T22:07:59.199Z,6.60
2023-04-22T22:10:26.554Z,6.40
2023-04-22T22:12:53.749Z,6.60
2023-04-22T22:15:21.102Z,7.00
2023-04-22T22:17:48.286Z,7.20
2023-04-22T22:20:21.218Z,6.75
2023-04-22T22:22:48.800Z,7.20
2023-04-22T22:25:17.069Z,7.63
2023-04-22T22:27:47.363Z,7.78
2023-04-22T22:30:15.418Z,7.80
2023-04-22T22:32:42.854Z,7.78
2023-04-22T22:35:10.873Z,7.80
2023-04-22T22:37:38.272Z,6.88
2023-04-22T22:40:06.353Z,6.60
2023-04-22T22:42:33.498Z,5.90
2023-04-22T22:45:00.597Z,6.10
2023-04-22T22:47:27.822Z,5.60
2023-04-22T22:49:54.996Z,6.25
2023-04-22T22:52:22.831Z,5.35
2023-04-22T22:54:50.566Z,5.28
2023-04-22T22:57:17.766Z,5.07
2023-04-22T22:59:44.956Z,5.68
2023-04-22T23:02:14.452Z,6.00
2023-04-22T23:04:41.927Z,6.35
2023-04-22T23:07:09.379Z,8.32
2023-04-22T23:09:36.528Z,6.32
2023-04-22T23:12:03.938Z,6.85
2023-04-22T23:14:33.047Z,7.60
2023-04-22T23:17:00.615Z,7.75
2023-04-22T23:19:28.813Z,8.13
2023-04-22T23:21:59.262Z,7.85
2023-04-22T23:24:26.829Z,7.80
2023-04-22T23:26:54.249Z,8.05
2023-04-22T23:29:21.893Z,7.30
2023-04-22T23:31:50.687Z,7.43
2023-04-22T23:34:21.549Z,7.18
2023-04-22T23:36:49.102Z,6.63
2023-04-22T23:39:16.860Z,8.05
2023-04-22T23:41:43.997Z,6.60
2023-04-22T23:44:11.989Z,6.80
2023-04-22T23:46:39.506Z,6.60
2023-04-22T23:49:07.551Z,7.43
2023-04-22T23:51:35.853Z,7.60
2023-04-22T23:54:03.028Z,6.88
2023-04-22T23:56:31.700Z,7.25
2023-04-22T23:58:59.142Z,7.68
